HLLB

Benina International Airport

Benghazi, Libya
METAR HLLB 211750Z 240020KT 7000 FEW015TCU BKN020 14/11 Q1012 RESH
Observed Flight Rules
Jan-21 @ 17:50 UTC (3 hours ago) Marginal Visual Flight Rules
Wind Visibility Clouds
240° at 20 knots 7,001 meters
  • Few at 1,500' AGL
  • Broken at 2,000' AGL
Temperatures Readings
Current 14°C / 57°F
Dewpoint 11°C / 52°F
Humidity 82%
Altimeter 29.88" Hg
Pressure 1012 hPa
Elevation 132
METAR HLLB 211750Z 240020KT 7000 FEW015TCU BKN020 14/11 Q1012 RESH
Observed Flight Rules
Jan-21 @ 17:50 UTC
(3 hours ago)
MVFR
Wind Visibility
240° at 20 knots 7,001 meters
Clouds
  • Few at 1,500' AGL
  • Broken at 2,000' AGL
Temperature Dewpoint
14°C / 57°F 11°C / 52°F
Humidity Altimeter Pressure
82% 29.88" Hg 1012 hPa